Terminal Aerodrome Forecast
Issued by NWS

Home | Current Version | Previous Version | Text Only | Print | Product List | Glossary On
Versions: 1 2 3 4 5 6 7 8 9 10 11
000
FTUS43 KAPX 050621 RRA
TAFAPN
TAF
KAPN 050621Z 0506/0606 00000KT 5SM BR SCT250
      TEMPO 0507/0511 3SM BR
     FM051300 17005KT P6SM SCT250
     FM051900 13009KT P6SM SCT050
     FM060100 17003KT P6SM SCT250=

USA.gov is the U.S. government's official web portal to all federal, state and local government web resources and services.